KAUM

Austin Municipal Airport

Austin, Minnesota, USA
METAR KAUM 220335Z AUTO 00000KT 10SM CLR 07/05 A3034 RMK AO2
Observed Flight Rules
Sep-22 @ 03:35 UTC (17 minutes ago) Visual Flight Rules
Visibility Clouds
10 miles
Temperatures Readings
Current 7°C / 45°F
Dewpoint 5°C / 41°F
Humidity 87%
Altimeter 30.34" Hg
Pressure 1027 hPa
Elevation 375
METAR KAUM 220335Z AUTO 00000KT 10SM CLR 07/05 A3034 RMK AO2
Observed Flight Rules
Sep-22 @ 03:35 UTC
(17 minutes ago)
VFR
Clouds
Temperature Dewpoint
7°C / 45°F 5°C / 41°F
Humidity Altimeter Pressure
87% 30.34" Hg 1027 hPa